AAL1771 KDFW-KLAS
Flight info
| Callsign | AAL1771 |
|---|---|
| Flight time | N/A |
| Altitude | 34000 |
| Route | HRPER3 HULZE DCT TXO/N0453F360 J72 GUP DCT HAHAA RKSTR4 |
| Aircraft | A321/M-SDE3FGHIRWY/LB1 |
Departure
| Time | N/A |
|---|---|
| Airport | Dallas Fort Worth International Airport (KDFW) |
Arrival
| Time | 2026-05-08 04:16 |
|---|---|
| Airport | Harry Reid International Airport (KLAS) |
| Time | Latitude | Longitude | Altitude | Speed | Heading |
|---|---|---|---|---|---|
| 2026-05-08 03:12 | 34.99763 | -106.43918 | 34056 ft | 447 kts | 282° |
| 2026-05-08 03:13 | 35.00695 | -106.51420 | 34084 ft | 447 kts | 282° |
| 2026-05-08 03:13 | 35.01619 | -106.58931 | 34086 ft | 448 kts | 281° |
| 2026-05-08 03:14 | 35.02541 | -106.66497 | 34104 ft | 448 kts | 281° |
| 2026-05-08 03:14 | 35.03454 | -106.74023 | 34080 ft | 449 kts | 282° |
| 2026-05-08 03:15 | 35.04398 | -106.81556 | 34078 ft | 448 kts | 285° |
| 2026-05-08 03:15 | 35.05978 | -106.88889 | 33912 ft | 447 kts | 288° |
| 2026-05-08 03:16 | 35.07585 | -106.96213 | 33937 ft | 446 kts | 288° |
| 2026-05-08 03:16 | 35.09177 | -107.03534 | 33939 ft | 446 kts | 288° |
| 2026-05-08 03:17 | 35.10766 | -107.10846 | 33945 ft | 446 kts | 289° |
| 2026-05-08 03:17 | 35.12354 | -107.18172 | 33946 ft | 446 kts | 288° |
| 2026-05-08 03:18 | 35.13934 | -107.25510 | 33957 ft | 447 kts | 288° |
| 2026-05-08 03:18 | 35.15515 | -107.32849 | 33967 ft | 447 kts | 288° |
| 2026-05-08 03:19 | 35.17088 | -107.40197 | 33965 ft | 447 kts | 288° |
| 2026-05-08 03:19 | 35.18658 | -107.47543 | 33974 ft | 447 kts | 289° |
| 2026-05-08 03:20 | 35.20231 | -107.54904 | 33977 ft | 448 kts | 289° |
| 2026-05-08 03:20 | 35.21798 | -107.62273 | 33976 ft | 447 kts | 288° |
| 2026-05-08 03:21 | 35.23358 | -107.69635 | 33990 ft | 447 kts | 288° |
| 2026-05-08 03:21 | 35.24912 | -107.76986 | 33985 ft | 446 kts | 288° |
| 2026-05-08 03:22 | 35.26456 | -107.84342 | 34193 ft | 446 kts | 288° |
| 2026-05-08 03:22 | 35.28008 | -107.91744 | 34185 ft | 447 kts | 289° |
| 2026-05-08 03:23 | 35.29556 | -107.99108 | 34158 ft | 447 kts | 288° |
| 2026-05-08 03:23 | 35.31097 | -108.06478 | 34116 ft | 447 kts | 288° |
| 2026-05-08 03:24 | 35.32628 | -108.13855 | 34071 ft | 447 kts | 288° |
| 2026-05-08 03:24 | 35.34149 | -108.21236 | 34020 ft | 447 kts | 288° |
| 2026-05-08 03:25 | 35.35671 | -108.28610 | 33984 ft | 446 kts | 288° |
| 2026-05-08 03:25 | 35.37188 | -108.35977 | 33990 ft | 445 kts | 288° |
| 2026-05-08 03:26 | 35.38701 | -108.43348 | 33938 ft | 448 kts | 288° |
| 2026-05-08 03:26 | 35.40228 | -108.50782 | 33931 ft | 452 kts | 288° |
| 2026-05-08 03:27 | 35.41751 | -108.58287 | 33924 ft | 455 kts | 288° |
| 2026-05-08 03:27 | 35.43282 | -108.65841 | 33930 ft | 457 kts | 288° |
| 2026-05-08 03:28 | 35.44822 | -108.73428 | 33921 ft | 459 kts | 288° |
| 2026-05-08 03:28 | 35.45589 | -108.77235 | 34159 ft | 460 kts | 288° |
| 2026-05-08 03:28 | 35.46356 | -108.81050 | 34160 ft | 461 kts | 288° |
| 2026-05-08 03:29 | 35.47582 | -108.88797 | 34153 ft | 468 kts | 277° |
| 2026-05-08 03:29 | 35.47648 | -108.96803 | 34114 ft | 470 kts | 274° |
| 2026-05-08 03:30 | 35.47695 | -109.08818 | 34127 ft | 469 kts | 274° |
| 2026-05-08 03:31 | 35.47755 | -109.24882 | 34098 ft | 469 kts | 274° |
| 2026-05-08 03:32 | 35.47778 | -109.36900 | 34045 ft | 469 kts | 274° |
| 2026-05-08 03:32 | 35.47792 | -109.44909 | 34004 ft | 470 kts | 274° |
| 2026-05-08 03:33 | 35.47797 | -109.52923 | 33993 ft | 470 kts | 274° |
| 2026-05-08 03:33 | 35.47794 | -109.60949 | 33993 ft | 471 kts | 274° |
| 2026-05-08 03:34 | 35.47784 | -109.68975 | 33987 ft | 471 kts | 274° |
| 2026-05-08 03:34 | 35.47769 | -109.77010 | 33992 ft | 471 kts | 274° |
| 2026-05-08 03:35 | 35.47759 | -109.85047 | 33985 ft | 471 kts | 274° |
| 2026-05-08 03:35 | 35.47743 | -109.93086 | 33986 ft | 472 kts | 274° |
| 2026-05-08 03:36 | 35.47716 | -110.00698 | 33983 ft | 472 kts | 274° |
| 2026-05-08 03:36 | 35.47680 | -110.08758 | 33983 ft | 472 kts | 274° |
| 2026-05-08 03:37 | 35.47637 | -110.16804 | 33979 ft | 472 kts | 274° |
| 2026-05-08 03:37 | 35.47596 | -110.24860 | 33982 ft | 472 kts | 274° |
| 2026-05-08 03:38 | 35.47555 | -110.32919 | 33985 ft | 472 kts | 274° |
| 2026-05-08 03:38 | 35.47500 | -110.40972 | 33989 ft | 472 kts | 274° |
| 2026-05-08 03:39 | 35.47438 | -110.49008 | 33979 ft | 471 kts | 274° |
| 2026-05-08 03:39 | 35.47369 | -110.57043 | 33980 ft | 471 kts | 274° |
| 2026-05-08 03:40 | 35.47303 | -110.65077 | 33977 ft | 471 kts | 274° |
| 2026-05-08 03:40 | 35.47224 | -110.73110 | 33979 ft | 471 kts | 274° |
| 2026-05-08 03:41 | 35.47144 | -110.81143 | 33975 ft | 471 kts | 274° |
| 2026-05-08 03:41 | 35.47060 | -110.89228 | 33975 ft | 471 kts | 274° |
| 2026-05-08 03:42 | 35.46971 | -110.97268 | 33977 ft | 472 kts | 273° |
| 2026-05-08 03:42 | 35.46873 | -111.05311 | 33981 ft | 472 kts | 273° |
| 2026-05-08 03:43 | 35.46770 | -111.13359 | 33980 ft | 472 kts | 273° |
| 2026-05-08 03:43 | 35.46669 | -111.21406 | 33980 ft | 472 kts | 273° |
| 2026-05-08 03:44 | 35.46556 | -111.29458 | 34000 ft | 472 kts | 273° |
| 2026-05-08 03:44 | 35.46437 | -111.37512 | 34002 ft | 472 kts | 273° |
| 2026-05-08 03:45 | 35.46312 | -111.45560 | 34003 ft | 472 kts | 273° |
| 2026-05-08 03:45 | 35.46180 | -111.53581 | 33998 ft | 467 kts | 273° |
| 2026-05-08 03:46 | 35.46042 | -111.61515 | 33502 ft | 464 kts | 273° |
| 2026-05-08 03:46 | 35.45974 | -111.65472 | 32786 ft | 465 kts | 273° |
| 2026-05-08 03:46 | 35.45906 | -111.69445 | 32075 ft | 467 kts | 272° |
| 2026-05-08 03:46 | 35.45835 | -111.73434 | 31358 ft | 468 kts | 272° |
| 2026-05-08 03:47 | 35.45762 | -111.77438 | 30661 ft | 470 kts | 272° |
| 2026-05-08 03:47 | 35.45688 | -111.81438 | 30177 ft | 469 kts | 272° |
| 2026-05-08 03:47 | 35.45652 | -111.85444 | 30001 ft | 469 kts | 276° |
| 2026-05-08 03:48 | 35.46351 | -111.92057 | 30076 ft | 467 kts | 283° |
| 2026-05-08 03:48 | 35.47352 | -111.99926 | 30111 ft | 467 kts | 282° |
| 2026-05-08 03:49 | 35.48338 | -112.07809 | 30133 ft | 467 kts | 282° |
| 2026-05-08 03:49 | 35.49315 | -112.15685 | 30138 ft | 467 kts | 282° |
| 2026-05-08 03:50 | 35.50289 | -112.23564 | 30127 ft | 467 kts | 282° |
| 2026-05-08 03:50 | 35.51259 | -112.31451 | 30099 ft | 467 kts | 282° |
| 2026-05-08 03:51 | 35.52223 | -112.39335 | 30048 ft | 467 kts | 282° |
| 2026-05-08 03:51 | 35.53183 | -112.47217 | 29976 ft | 467 kts | 282° |
| 2026-05-08 03:52 | 35.54143 | -112.55100 | 29944 ft | 467 kts | 282° |
| 2026-05-08 03:52 | 35.55102 | -112.62982 | 29944 ft | 466 kts | 282° |
| 2026-05-08 03:53 | 35.56048 | -112.70854 | 29950 ft | 466 kts | 282° |
| 2026-05-08 03:53 | 35.56988 | -112.78733 | 29939 ft | 466 kts | 282° |
| 2026-05-08 03:54 | 35.57927 | -112.86662 | 29939 ft | 466 kts | 282° |
| 2026-05-08 03:54 | 35.58862 | -112.94545 | 29940 ft | 466 kts | 282° |
| 2026-05-08 03:55 | 35.59791 | -113.02426 | 29936 ft | 466 kts | 282° |
| 2026-05-08 03:55 | 35.60711 | -113.10314 | 29936 ft | 466 kts | 282° |
| 2026-05-08 03:56 | 35.61622 | -113.18204 | 29740 ft | 467 kts | 281° |
| 2026-05-08 03:56 | 35.62073 | -113.22159 | 29466 ft | 467 kts | 281° |
| 2026-05-08 03:56 | 35.62525 | -113.26117 | 29177 ft | 468 kts | 281° |
| 2026-05-08 03:56 | 35.62980 | -113.30078 | 28906 ft | 468 kts | 281° |
| 2026-05-08 03:57 | 35.63432 | -113.34031 | 28396 ft | 468 kts | 281° |
| 2026-05-08 03:57 | 35.63891 | -113.38022 | 27192 ft | 475 kts | 281° |
| 2026-05-08 03:57 | 35.64357 | -113.42072 | 26007 ft | 481 kts | 281° |
| 2026-05-08 03:57 | 35.64822 | -113.46169 | 24870 ft | 486 kts | 281° |
| 2026-05-08 03:58 | 35.65294 | -113.50297 | 23759 ft | 489 kts | 281° |
| 2026-05-08 03:58 | 35.65855 | -113.54420 | 22871 ft | 485 kts | 283° |
| 2026-05-08 03:58 | 35.66498 | -113.58449 | 22243 ft | 475 kts | 284° |
| 2026-05-08 03:58 | 35.67181 | -113.62383 | 21565 ft | 467 kts | 285° |
| 2026-05-08 03:59 | 35.67873 | -113.66259 | 20878 ft | 461 kts | 285° |
| 2026-05-08 03:59 | 35.68550 | -113.70082 | 20198 ft | 455 kts | 285° |
| 2026-05-08 03:59 | 35.69201 | -113.73874 | 19502 ft | 450 kts | 284° |
| 2026-05-08 03:59 | 35.69822 | -113.77626 | 18835 ft | 446 kts | 284° |
| 2026-05-08 04:00 | 35.70422 | -113.81353 | 18170 ft | 442 kts | 284° |
| 2026-05-08 04:00 | 35.71009 | -113.85043 | 17516 ft | 438 kts | 284° |
| 2026-05-08 04:00 | 35.71588 | -113.88699 | 17033 ft | 428 kts | 284° |
| 2026-05-08 04:00 | 35.72144 | -113.92213 | 16894 ft | 410 kts | 284° |
| 2026-05-08 04:01 | 35.72681 | -113.95588 | 16763 ft | 394 kts | 284° |
| 2026-05-08 04:01 | 35.73197 | -113.98807 | 16634 ft | 379 kts | 284° |
| 2026-05-08 04:01 | 35.73708 | -114.01994 | 16501 ft | 364 kts | 284° |
| 2026-05-08 04:01 | 35.74187 | -114.04986 | 16340 ft | 351 kts | 284° |
| 2026-05-08 04:02 | 35.74658 | -114.07925 | 16253 ft | 352 kts | 284° |
| 2026-05-08 04:02 | 35.75137 | -114.10897 | 16145 ft | 356 kts | 284° |
| 2026-05-08 04:02 | 35.75625 | -114.13886 | 15968 ft | 355 kts | 287° |
| 2026-05-08 04:02 | 35.76444 | -114.16675 | 15814 ft | 339 kts | 301° |
| 2026-05-08 04:03 | 35.77545 | -114.19171 | 15695 ft | 325 kts | 302° |
| 2026-05-08 04:03 | 35.79684 | -114.23983 | 14962 ft | 319 kts | 302° |
| 2026-05-08 04:03 | 35.80746 | -114.26380 | 14542 ft | 318 kts | 302° |
| 2026-05-08 04:04 | 35.81803 | -114.28773 | 14145 ft | 317 kts | 302° |
| 2026-05-08 04:04 | 35.82851 | -114.31153 | 13830 ft | 315 kts | 302° |
| 2026-05-08 04:04 | 35.83921 | -114.33498 | 13505 ft | 312 kts | 307° |
| 2026-05-08 04:04 | 35.85219 | -114.35621 | 13187 ft | 309 kts | 310° |
| 2026-05-08 04:05 | 35.86533 | -114.37717 | 12884 ft | 308 kts | 310° |
| 2026-05-08 04:05 | 35.87843 | -114.39805 | 12571 ft | 308 kts | 310° |
| 2026-05-08 04:05 | 35.89157 | -114.41896 | 12272 ft | 309 kts | 310° |
| 2026-05-08 04:05 | 35.90466 | -114.43985 | 11981 ft | 308 kts | 310° |
| 2026-05-08 04:06 | 35.91768 | -114.46075 | 11688 ft | 305 kts | 309° |
| 2026-05-08 04:06 | 35.93040 | -114.48125 | 11467 ft | 298 kts | 309° |
| 2026-05-08 04:06 | 35.94298 | -114.50148 | 11127 ft | 295 kts | 309° |
| 2026-05-08 04:06 | 35.95539 | -114.52143 | 10835 ft | 292 kts | 309° |
| 2026-05-08 04:07 | 35.96769 | -114.54125 | 10553 ft | 289 kts | 309° |
| 2026-05-08 04:07 | 35.97984 | -114.56090 | 10281 ft | 287 kts | 309° |
| 2026-05-08 04:07 | 35.99187 | -114.58045 | 10007 ft | 286 kts | 309° |
| 2026-05-08 04:07 | 36.00386 | -114.59997 | 9740 ft | 285 kts | 309° |
| 2026-05-08 04:08 | 36.01574 | -114.61930 | 9452 ft | 280 kts | 308° |
| 2026-05-08 04:08 | 36.02746 | -114.63838 | 9181 ft | 277 kts | 308° |
| 2026-05-08 04:08 | 36.03881 | -114.65736 | 8894 ft | 273 kts | 302° |
| 2026-05-08 04:08 | 36.04856 | -114.67725 | 8638 ft | 267 kts | 301° |
| 2026-05-08 04:09 | 36.05811 | -114.69674 | 8376 ft | 263 kts | 301° |
| 2026-05-08 04:09 | 36.06747 | -114.71603 | 8113 ft | 260 kts | 297° |
| 2026-05-08 04:09 | 36.07290 | -114.73717 | 7968 ft | 252 kts | 276° |
| 2026-05-08 04:09 | 36.07321 | -114.75800 | 7884 ft | 241 kts | 270° |
| 2026-05-08 04:10 | 36.07320 | -114.77846 | 7706 ft | 227 kts | 271° |
| 2026-05-08 04:10 | 36.07326 | -114.79765 | 7334 ft | 220 kts | 270° |
| 2026-05-08 04:10 | 36.07334 | -114.81649 | 6947 ft | 217 kts | 270° |
| 2026-05-08 04:10 | 36.07341 | -114.83501 | 6430 ft | 215 kts | 270° |
| 2026-05-08 04:11 | 36.07348 | -114.85339 | 6146 ft | 214 kts | 270° |
| 2026-05-08 04:11 | 36.07352 | -114.87205 | 5923 ft | 219 kts | 269° |
| 2026-05-08 04:11 | 36.07355 | -114.89098 | 5676 ft | 220 kts | 269° |
| 2026-05-08 04:11 | 36.07358 | -114.90964 | 5391 ft | 212 kts | 269° |
| 2026-05-08 04:12 | 36.07358 | -114.92740 | 5074 ft | 201 kts | 268° |
| 2026-05-08 04:12 | 36.07359 | -114.94431 | 4819 ft | 192 kts | 268° |
| 2026-05-08 04:12 | 36.07361 | -114.96075 | 4550 ft | 191 kts | 269° |
| 2026-05-08 04:12 | 36.07362 | -114.97712 | 4319 ft | 190 kts | 269° |
| 2026-05-08 04:13 | 36.07366 | -114.99350 | 4075 ft | 191 kts | 269° |
| 2026-05-08 04:13 | 36.07373 | -115.01002 | 3811 ft | 192 kts | 268° |
| 2026-05-08 04:13 | 36.07372 | -115.02626 | 3585 ft | 186 kts | 270° |
| 2026-05-08 04:13 | 36.07361 | -115.04222 | 3378 ft | 184 kts | 268° |
| 2026-05-08 04:14 | 36.07354 | -115.05734 | 3198 ft | 168 kts | 270° |
| 2026-05-08 04:14 | 36.07358 | -115.07120 | 2964 ft | 157 kts | 269° |
| 2026-05-08 04:14 | 36.07373 | -115.08430 | 2762 ft | 150 kts | 269° |
| 2026-05-08 04:14 | 36.07378 | -115.09711 | 2536 ft | 147 kts | 264° |
| 2026-05-08 04:15 | 36.07366 | -115.10967 | 2366 ft | 146 kts | 266° |
| 2026-05-08 04:15 | 36.07369 | -115.12224 | 2172 ft | 146 kts | 266° |
| 2026-05-08 04:15 | 36.07367 | -115.13461 | 2073 ft | 126 kts | 270° |
| 2026-05-08 04:15 | 36.07367 | -115.14184 | 2085 ft | 52 kts | 270° |
| 2026-05-08 04:16 | 36.07408 | -115.14444 | 2091 ft | 26 kts | 297° |
| 2026-05-08 04:16 | 36.07487 | -115.14616 | 2096 ft | 17 kts | 302° |
| 2026-05-08 04:16 | 36.07572 | -115.14656 | 2101 ft | 12 kts | 2° |
| 2026-05-08 04:16 | 36.07657 | -115.14653 | 2101 ft | 14 kts | 1° |
| 2026-05-08 04:17 | 36.07745 | -115.14649 | 2098 ft | 11 kts | 22° |
| 2026-05-08 04:17 | 36.07768 | -115.14550 | 2097 ft | 14 kts | 95° |
| 2026-05-08 04:17 | 36.07760 | -115.14420 | 2097 ft | 16 kts | 95° |
| 2026-05-08 04:17 | 36.07754 | -115.14286 | 2096 ft | 16 kts | 89° |
| 2026-05-08 04:18 | 36.07755 | -115.14144 | 2094 ft | 16 kts | 90° |
| 2026-05-08 04:18 | 36.07755 | -115.14002 | 2093 ft | 15 kts | 90° |
| 2026-05-08 04:18 | 36.07755 | -115.13865 | 2093 ft | 17 kts | 90° |
| 2026-05-08 04:18 | 36.07791 | -115.13791 | 2093 ft | 11 kts | 12° |
| 2026-05-08 04:19 | 36.07829 | -115.13723 | 2093 ft | 12 kts | 92° |
| 2026-05-08 04:19 | 36.07830 | -115.13617 | 2092 ft | 13 kts | 76° |
| 2026-05-08 04:19 | 36.07892 | -115.13592 | 2092 ft | 11 kts | 327° |
| 2026-05-08 04:19 | 36.07926 | -115.13630 | 2092 ft | 9 kts | 312° |
| 2026-05-08 04:20 | 36.07968 | -115.13683 | 2092 ft | 7 kts | 315° |
| 2026-05-08 04:20 | 36.07990 | -115.13682 | 2092 ft | 3 kts | 37° |
| 2026-05-08 04:20 | 36.08004 | -115.13651 | 2092 ft | 5 kts | 67° |
| 2026-05-08 04:20 | 36.08018 | -115.13614 | 2092 ft | 3 kts | 66° |
| 2026-05-08 04:21 | 36.08022 | -115.13603 | 2092 ft | 1 kts | 66° |
| 2026-05-08 04:21 | 36.08022 | -115.13602 | 2092 ft | 0 kts | 66° |